sensor_id;sensor_type;location;lat;lon;timestamp;temperature;humidity
4324;DHT22;2175;51.018;6.994;2023-03-01T00:01:19;0.10;47.80
4324;DHT22;2175;51.018;6.994;2023-03-01T00:03:45;0.10;65.80
4324;DHT22;2175;51.018;6.994;2023-03-01T00:06:11;0.00;66.20
4324;DHT22;2175;51.018;6.994;2023-03-01T00:08:37;-0.10;35.00
4324;DHT22;2175;51.018;6.994;2023-03-01T00:13:39;-0.20;51.60
4324;DHT22;2175;51.018;6.994;2023-03-01T00:16:11;-0.10;54.50
4324;DHT22;2175;51.018;6.994;2023-03-01T00:18:37;-0.10;57.70
4324;DHT22;2175;51.018;6.994;2023-03-01T00:21:03;-0.20;43.50
4324;DHT22;2175;51.018;6.994;2023-03-01T00:23:28;-0.30;41.30
4324;DHT22;2175;51.018;6.994;2023-03-01T00:25:57;-0.30;41.90
4324;DHT22;2175;51.018;6.994;2023-03-01T00:28:26;-0.20;83.30
4324;DHT22;2175;51.018;6.994;2023-03-01T00:30:52;-0.20;71.10
4324;DHT22;2175;51.018;6.994;2023-03-01T00:33:18;-0.10;72.70
4324;DHT22;2175;51.018;6.994;2023-03-01T00:35:43;-0.20;77.70
4324;DHT22;2175;51.018;6.994;2023-03-01T00:38:09;-0.20;65.20
4324;DHT22;2175;51.018;6.994;2023-03-01T00:40:35;-0.20;49.80
4324;DHT22;2175;51.018;6.994;2023-03-01T00:43:02;-0.20;42.30
4324;DHT22;2175;51.018;6.994;2023-03-01T00:45:28;-0.30;57.60
4324;DHT22;2175;51.018;6.994;2023-03-01T00:47:56;-0.30;66.40
4324;DHT22;2175;51.018;6.994;2023-03-01T00:50:22;-0.30;40.60
4324;DHT22;2175;51.018;6.994;2023-03-01T00:52:52;-0.20;61.40
4324;DHT22;2175;51.018;6.994;2023-03-01T00:55:18;-0.40;53.10
4324;DHT22;2175;51.018;6.994;2023-03-01T00:57:43;-0.40;61.10
4324;DHT22;2175;51.018;6.994;2023-03-01T01:00:10;-0.40;53.90
4324;DHT22;2175;51.018;6.994;2023-03-01T01:02:36;-0.50;52.30
4324;DHT22;2175;51.018;6.994;2023-03-01T01:05:03;-0.50;45.90
4324;DHT22;2175;51.018;6.994;2023-03-01T01:07:29;-0.50;33.60
4324;DHT22;2175;51.018;6.994;2023-03-01T01:09:56;-0.40;48.00
4324;DHT22;2175;51.018;6.994;2023-03-01T01:12:22;-0.50;44.00
4324;DHT22;2175;51.018;6.994;2023-03-01T01:14:48;-0.50;58.20
4324;DHT22;2175;51.018;6.994;2023-03-01T01:17:13;-0.40;54.30
4324;DHT22;2175;51.018;6.994;2023-03-01T01:19:42;-0.50;54.00
4324;DHT22;2175;51.018;6.994;2023-03-01T01:22:08;-0.60;48.20
4324;DHT22;2175;51.018;6.994;2023-03-01T01:24:35;-0.60;51.30
4324;DHT22;2175;51.018;6.994;2023-03-01T01:27:01;-0.70;52.40
4324;DHT22;2175;51.018;6.994;2023-03-01T01:29:27;-0.70;52.00
4324;DHT22;2175;51.018;6.994;2023-03-01T01:31:53;-0.70;56.30
4324;DHT22;2175;51.018;6.994;2023-03-01T01:34:21;-0.80;54.90
4324;DHT22;2175;51.018;6.994;2023-03-01T01:36:53;-0.80;58.80
4324;DHT22;2175;51.018;6.994;2023-03-01T01:39:20;-0.70;69.60
4324;DHT22;2175;51.018;6.994;2023-03-01T01:41:46;-0.70;66.80
4324;DHT22;2175;51.018;6.994;2023-03-01T01:44:19;-0.70;68.40
4324;DHT22;2175;51.018;6.994;2023-03-01T01:52:05;-0.60;62.60
4324;DHT22;2175;51.018;6.994;2023-03-01T01:57:26;-0.70;47.70
4324;DHT22;2175;51.018;6.994;2023-03-01T01:59:55;-0.80;51.10
4324;DHT22;2175;51.018;6.994;2023-03-01T02:02:23;-0.70;51.20
4324;DHT22;2175;51.018;6.994;2023-03-01T02:05:11;-0.80;36.40
4324;DHT22;2175;51.018;6.994;2023-03-01T02:07:40;-0.80;34.10
4324;DHT22;2175;51.018;6.994;2023-03-01T02:10:08;-0.90;33.80
4324;DHT22;2175;51.018;6.994;2023-03-01T02:12:34;-0.90;36.70
4324;DHT22;2175;51.018;6.994;2023-03-01T02:15:01;-0.90;36.40
4324;DHT22;2175;51.018;6.994;2023-03-01T02:17:27;-0.80;35.70
4324;DHT22;2175;51.018;6.994;2023-03-01T02:22:40;-0.70;75.60
4324;DHT22;2175;51.018;6.994;2023-03-01T02:30:56;-0.90;58.00
4324;DHT22;2175;51.018;6.994;2023-03-01T02:33:40;-0.90;59.30
4324;DHT22;2175;51.018;6.994;2023-03-01T02:36:29;-0.90;62.20
4324;DHT22;2175;51.018;6.994;2023-03-01T02:38:58;-0.90;62.70
4324;DHT22;2175;51.018;6.994;2023-03-01T02:41:26;-0.90;55.20
4324;DHT22;2175;51.018;6.994;2023-03-01T02:43:53;-1.00;53.80
4324;DHT22;2175;51.018;6.994;2023-03-01T02:46:21;-1.10;73.10
4324;DHT22;2175;51.018;6.994;2023-03-01T02:48:56;-1.10;80.50
4324;DHT22;2175;51.018;6.994;2023-03-01T02:54:24;-1.10;66.30
4324;DHT22;2175;51.018;6.994;2023-03-01T02:56:51;-1.10;58.10
4324;DHT22;2175;51.018;6.994;2023-03-01T02:59:20;-1.10;59.30
4324;DHT22;2175;51.018;6.994;2023-03-01T03:01:46;-1.20;46.60
4324;DHT22;2175;51.018;6.994;2023-03-01T03:04:17;-1.20;51.80
4324;DHT22;2175;51.018;6.994;2023-03-01T03:06:45;-1.20;57.00
4324;DHT22;2175;51.018;6.994;2023-03-01T03:09:12;-1.10;48.10
4324;DHT22;2175;51.018;6.994;2023-03-01T03:11:38;-1.20;54.10
4324;DHT22;2175;51.018;6.994;2023-03-01T03:14:09;-1.20;53.30
4324;DHT22;2175;51.018;6.994;2023-03-01T03:16:49;-1.10;78.70
4324;DHT22;2175;51.018;6.994;2023-03-01T03:19:19;-1.00;83.50
4324;DHT22;2175;51.018;6.994;2023-03-01T03:21:45;-1.00;71.60
4324;DHT22;2175;51.018;6.994;2023-03-01T03:24:10;-1.10;64.00
4324;DHT22;2175;51.018;6.994;2023-03-01T03:26:36;-1.10;74.00
4324;DHT22;2175;51.018;6.994;2023-03-01T03:29:02;-1.20;79.40
4324;DHT22;2175;51.018;6.994;2023-03-01T03:31:28;-1.20;78.50
4324;DHT22;2175;51.018;6.994;2023-03-01T03:33:54;-1.20;82.20
4324;DHT22;2175;51.018;6.994;2023-03-01T03:36:23;-1.20;72.20
4324;DHT22;2175;51.018;6.994;2023-03-01T03:38:49;-1.30;69.50
4324;DHT22;2175;51.018;6.994;2023-03-01T03:41:15;-1.30;80.00
4324;DHT22;2175;51.018;6.994;2023-03-01T03:43:42;-1.30;78.90
4324;DHT22;2175;51.018;6.994;2023-03-01T03:46:09;-1.30;73.80
4324;DHT22;2175;51.018;6.994;2023-03-01T03:48:38;-1.30;80.50
4324;DHT22;2175;51.018;6.994;2023-03-01T03:51:04;-1.30;71.10
4324;DHT22;2175;51.018;6.994;2023-03-01T03:53:33;-1.30;79.50
4324;DHT22;2175;51.018;6.994;2023-03-01T03:55:59;-1.30;79.90
4324;DHT22;2175;51.018;6.994;2023-03-01T03:58:25;-1.30;86.60
4324;DHT22;2175;51.018;6.994;2023-03-01T04:00:54;-1.40;79.60
4324;DHT22;2175;51.018;6.994;2023-03-01T04:03:22;-1.40;79.30
4324;DHT22;2175;51.018;6.994;2023-03-01T04:05:49;-1.50;81.80
4324;DHT22;2175;51.018;6.994;2023-03-01T04:08:20;-1.40;81.80
4324;DHT22;2175;51.018;6.994;2023-03-01T04:10:51;-1.50;79.40
4324;DHT22;2175;51.018;6.994;2023-03-01T04:13:20;-1.50;79.50
4324;DHT22;2175;51.018;6.994;2023-03-01T04:15:50;-1.60;75.30
4324;DHT22;2175;51.018;6.994;2023-03-01T04:18:19;-1.60;82.80
4324;DHT22;2175;51.018;6.994;2023-03-01T04:20:45;-1.50;88.80
4324;DHT22;2175;51.018;6.994;2023-03-01T04:23:15;-1.50;79.80
4324;DHT22;2175;51.018;6.994;2023-03-01T04:25:42;-1.40;90.00
4324;DHT22;2175;51.018;6.994;2023-03-01T04:28:10;-1.50;83.00
4324;DHT22;2175;51.018;6.994;2023-03-01T04:30:38;-1.50;74.90
4324;DHT22;2175;51.018;6.994;2023-03-01T04:33:08;-1.60;81.50
4324;DHT22;2175;51.018;6.994;2023-03-01T04:35:35;-1.50;77.40
4324;DHT22;2175;51.018;6.994;2023-03-01T04:38:01;-1.50;81.60
4324;DHT22;2175;51.018;6.994;2023-03-01T04:40:27;-1.50;81.30
4324;DHT22;2175;51.018;6.994;2023-03-01T04:42:52;-1.50;82.40
4324;DHT22;2175;51.018;6.994;2023-03-01T04:45:18;-1.50;82.80
4324;DHT22;2175;51.018;6.994;2023-03-01T04:47:45;-1.50;86.60
4324;DHT22;2175;51.018;6.994;2023-03-01T04:50:13;-1.60;88.20
4324;DHT22;2175;51.018;6.994;2023-03-01T04:52:39;-1.60;80.20
4324;DHT22;2175;51.018;6.994;2023-03-01T04:55:05;-1.60;80.40
4324;DHT22;2175;51.018;6.994;2023-03-01T04:57:31;-1.60;83.60
4324;DHT22;2175;51.018;6.994;2023-03-01T04:59:57;-1.50;91.40
4324;DHT22;2175;51.018;6.994;2023-03-01T05:02:23;-1.50;97.10
4324;DHT22;2175;51.018;6.994;2023-03-01T05:04:49;-1.50;95.40
4324;DHT22;2175;51.018;6.994;2023-03-01T05:07:14;-1.60;94.20
4324;DHT22;2175;51.018;6.994;2023-03-01T05:09:48;-1.60;92.80
4324;DHT22;2175;51.018;6.994;2023-03-01T05:12:14;-1.70;97.10
4324;DHT22;2175;51.018;6.994;2023-03-01T05:14:40;-1.60;95.10
4324;DHT22;2175;51.018;6.994;2023-03-01T05:17:07;-1.70;93.40
4324;DHT22;2175;51.018;6.994;2023-03-01T05:19:33;-1.80;88.40
4324;DHT22;2175;51.018;6.994;2023-03-01T05:21:58;-1.90;80.40
4324;DHT22;2175;51.018;6.994;2023-03-01T05:24:28;-1.90;93.20
4324;DHT22;2175;51.018;6.994;2023-03-01T05:26:54;-2.00;92.30
4324;DHT22;2175;51.018;6.994;2023-03-01T05:29:21;-1.90;97.70
4324;DHT22;2175;51.018;6.994;2023-03-01T05:32:00;-1.90;95.10
4324;DHT22;2175;51.018;6.994;2023-03-01T05:34:32;-2.00;89.20
4324;DHT22;2175;51.018;6.994;2023-03-01T05:36:59;-2.10;91.80
4324;DHT22;2175;51.018;6.994;2023-03-01T05:39:27;-2.10;94.90
4324;DHT22;2175;51.018;6.994;2023-03-01T05:41:54;-2.10;93.40
4324;DHT22;2175;51.018;6.994;2023-03-01T05:44:21;-2.10;95.90
4324;DHT22;2175;51.018;6.994;2023-03-01T05:46:47;-2.10;94.60
4324;DHT22;2175;51.018;6.994;2023-03-01T05:49:13;-2.20;97.00
4324;DHT22;2175;51.018;6.994;2023-03-01T05:51:45;-2.20;97.60
4324;DHT22;2175;51.018;6.994;2023-03-01T05:54:13;-2.20;95.80
4324;DHT22;2175;51.018;6.994;2023-03-01T05:56:38;-2.30;99.90
4324;DHT22;2175;51.018;6.994;2023-03-01T05:59:05;-2.30;99.90
4324;DHT22;2175;51.018;6.994;2023-03-01T06:01:31;-2.40;99.90
4324;DHT22;2175;51.018;6.994;2023-03-01T06:03:57;-2.40;99.90
4324;DHT22;2175;51.018;6.994;2023-03-01T06:06:23;-2.40;99.90
4324;DHT22;2175;51.018;6.994;2023-03-01T06:08:50;-2.40;99.90
4324;DHT22;2175;51.018;6.994;2023-03-01T06:11:16;-2.40;97.50
4324;DHT22;2175;51.018;6.994;2023-03-01T06:13:42;-2.40;99.90
4324;DHT22;2175;51.018;6.994;2023-03-01T06:16:08;-2.40;99.90
4324;DHT22;2175;51.018;6.994;2023-03-01T06:18:34;-2.40;99.90
4324;DHT22;2175;51.018;6.994;2023-03-01T06:21:00;-2.50;99.90
4324;DHT22;2175;51.018;6.994;2023-03-01T06:23:25;-2.40;99.90
4324;DHT22;2175;51.018;6.994;2023-03-01T06:25:52;-2.60;99.90
4324;DHT22;2175;51.018;6.994;2023-03-01T06:28:17;-2.50;99.90
4324;DHT22;2175;51.018;6.994;2023-03-01T06:30:43;-2.40;99.90
4324;DHT22;2175;51.018;6.994;2023-03-01T06:33:09;-2.40;99.90
4324;DHT22;2175;51.018;6.994;2023-03-01T06:35:34;-2.40;99.90
4324;DHT22;2175;51.018;6.994;2023-03-01T06:38:02;-2.40;99.90
4324;DHT22;2175;51.018;6.994;2023-03-01T06:40:28;-2.50;99.90
4324;DHT22;2175;51.018;6.994;2023-03-01T06:42:54;-2.40;99.90
4324;DHT22;2175;51.018;6.994;2023-03-01T06:45:21;-2.50;99.90
4324;DHT22;2175;51.018;6.994;2023-03-01T06:47:47;-2.40;99.90
4324;DHT22;2175;51.018;6.994;2023-03-01T06:50:13;-2.30;99.90
4324;DHT22;2175;51.018;6.994;2023-03-01T06:52:39;-2.30;99.90
4324;DHT22;2175;51.018;6.994;2023-03-01T06:55:06;-2.40;99.90
4324;DHT22;2175;51.018;6.994;2023-03-01T06:57:32;-2.20;99.90
4324;DHT22;2175;51.018;6.994;2023-03-01T06:59:57;-2.20;99.90
4324;DHT22;2175;51.018;6.994;2023-03-01T07:02:23;-2.10;99.90
4324;DHT22;2175;51.018;6.994;2023-03-01T07:04:50;-2.00;99.90
4324;DHT22;2175;51.018;6.994;2023-03-01T07:07:16;-1.90;99.90
4324;DHT22;2175;51.018;6.994;2023-03-01T07:09:46;-1.90;99.90
4324;DHT22;2175;51.018;6.994;2023-03-01T07:12:12;-1.90;99.90
4324;DHT22;2175;51.018;6.994;2023-03-01T07:14:38;-1.90;99.90
4324;DHT22;2175;51.018;6.994;2023-03-01T07:17:03;-1.80;99.90
4324;DHT22;2175;51.018;6.994;2023-03-01T07:19:29;-1.80;99.90
4324;DHT22;2175;51.018;6.994;2023-03-01T07:21:54;-1.70;99.90
4324;DHT22;2175;51.018;6.994;2023-03-01T07:24:24;-1.70;99.90
4324;DHT22;2175;51.018;6.994;2023-03-01T07:26:50;-1.60;99.90
4324;DHT22;2175;51.018;6.994;2023-03-01T07:29:16;-1.50;99.90
4324;DHT22;2175;51.018;6.994;2023-03-01T07:31:41;-1.50;99.90
4324;DHT22;2175;51.018;6.994;2023-03-01T07:34:07;-1.30;99.90
4324;DHT22;2175;51.018;6.994;2023-03-01T07:36:32;-1.20;99.90
4324;DHT22;2175;51.018;6.994;2023-03-01T07:38:58;-1.10;99.90
4324;DHT22;2175;51.018;6.994;2023-03-01T07:41:24;-1.10;99.90
4324;DHT22;2175;51.018;6.994;2023-03-01T07:43:50;-1.10;99.90
4324;DHT22;2175;51.018;6.994;2023-03-01T07:46:15;-1.00;94.50
4324;DHT22;2175;51.018;6.994;2023-03-01T07:48:41;-0.90;92.20
4324;DHT22;2175;51.018;6.994;2023-03-01T07:51:07;-0.90;97.30
4324;DHT22;2175;51.018;6.994;2023-03-01T07:53:33;-0.80;94.90
4324;DHT22;2175;51.018;6.994;2023-03-01T07:56:12;-0.70;96.20
4324;DHT22;2175;51.018;6.994;2023-03-01T07:58:41;-0.60;81.90
4324;DHT22;2175;51.018;6.994;2023-03-01T08:01:10;-0.60;85.90
4324;DHT22;2175;51.018;6.994;2023-03-01T08:03:37;-0.50;89.40
4324;DHT22;2175;51.018;6.994;2023-03-01T08:06:05;-0.40;82.20
4324;DHT22;2175;51.018;6.994;2023-03-01T08:08:31;-0.30;92.90
4324;DHT22;2175;51.018;6.994;2023-03-01T08:11:00;-0.30;83.50
4324;DHT22;2175;51.018;6.994;2023-03-01T08:13:27;-0.20;85.00
4324;DHT22;2175;51.018;6.994;2023-03-01T08:15:53;0.00;71.30
4324;DHT22;2175;51.018;6.994;2023-03-01T08:18:20;0.20;48.00
4324;DHT22;2175;51.018;6.994;2023-03-01T08:20:46;0.50;12.50
4324;DHT22;2175;51.018;6.994;2023-03-01T08:23:12;0.80;1.00
4324;DHT22;2175;51.018;6.994;2023-03-01T08:25:38;1.00;1.00
4324;DHT22;2175;51.018;6.994;2023-03-01T08:28:05;1.10;1.00
4324;DHT22;2175;51.018;6.994;2023-03-01T08:30:31;1.30;1.00
4324;DHT22;2175;51.018;6.994;2023-03-01T08:32:57;1.50;1.00
4324;DHT22;2175;51.018;6.994;2023-03-01T08:35:22;1.70;1.00
4324;DHT22;2175;51.018;6.994;2023-03-01T08:37:48;1.80;1.00
4324;DHT22;2175;51.018;6.994;2023-03-01T08:40:14;1.90;1.00
4324;DHT22;2175;51.018;6.994;2023-03-01T08:42:41;2.10;1.00
4324;DHT22;2175;51.018;6.994;2023-03-01T08:45:08;2.20;1.00
4324;DHT22;2175;51.018;6.994;2023-03-01T08:47:34;2.50;1.00
4324;DHT22;2175;51.018;6.994;2023-03-01T08:50:00;3.50;1.00
4324;DHT22;2175;51.018;6.994;2023-03-01T08:52:26;4.70;99.90
4324;DHT22;2175;51.018;6.994;2023-03-01T08:54:52;5.50;1.00
4324;DHT22;2175;51.018;6.994;2023-03-01T08:57:17;5.90;1.00
4324;DHT22;2175;51.018;6.994;2023-03-01T08:59:43;6.30;99.90
4324;DHT22;2175;51.018;6.994;2023-03-01T09:02:13;7.10;99.90
4324;DHT22;2175;51.018;6.994;2023-03-01T09:04:39;7.10;99.90
4324;DHT22;2175;51.018;6.994;2023-03-01T09:07:04;7.30;99.90
4324;DHT22;2175;51.018;6.994;2023-03-01T09:09:30;7.40;2.00
4324;DHT22;2175;51.018;6.994;2023-03-01T09:11:56;7.50;9.30
4324;DHT22;2175;51.018;6.994;2023-03-01T09:14:21;7.70;1.00
4324;DHT22;2175;51.018;6.994;2023-03-01T09:16:47;7.20;1.00
4324;DHT22;2175;51.018;6.994;2023-03-01T09:19:13;6.90;1.00
4324;DHT22;2175;51.018;6.994;2023-03-01T09:21:39;6.80;5.10
4324;DHT22;2175;51.018;6.994;2023-03-01T09:24:04;7.10;2.10
4324;DHT22;2175;51.018;6.994;2023-03-01T09:26:30;6.90;1.00
4324;DHT22;2175;51.018;6.994;2023-03-01T09:28:56;6.80;1.00
4324;DHT22;2175;51.018;6.994;2023-03-01T09:31:23;6.90;1.00
4324;DHT22;2175;51.018;6.994;2023-03-01T09:33:52;6.50;66.10
4324;DHT22;2175;51.018;6.994;2023-03-01T09:36:20;6.70;91.70
4324;DHT22;2175;51.018;6.994;2023-03-01T09:38:47;6.60;66.60
4324;DHT22;2175;51.018;6.994;2023-03-01T09:46:47;6.80;52.80
4324;DHT22;2175;51.018;6.994;2023-03-01T09:49:17;6.50;1.00
4324;DHT22;2175;51.018;6.994;2023-03-01T09:54:41;6.30;74.40
4324;DHT22;2175;51.018;6.994;2023-03-01T09:57:19;6.00;48.00
4324;DHT22;2175;51.018;6.994;2023-03-01T10:00:03;5.70;99.90
4324;DHT22;2175;51.018;6.994;2023-03-01T10:02:45;5.80;99.90
4324;DHT22;2175;51.018;6.994;2023-03-01T10:11:05;6.00;99.90
4324;DHT22;2175;51.018;6.994;2023-03-01T10:16:41;5.90;11.20
4324;DHT22;2175;51.018;6.994;2023-03-01T10:19:17;5.80;58.80
4324;DHT22;2175;51.018;6.994;2023-03-01T10:21:46;5.60;29.30
4324;DHT22;2175;51.018;6.994;2023-03-01T10:24:17;5.80;99.90
4324;DHT22;2175;51.018;6.994;2023-03-01T10:26:56;5.80;99.90
4324;DHT22;2175;51.018;6.994;2023-03-01T10:29:37;5.70;1.00
4324;DHT22;2175;51.018;6.994;2023-03-01T10:32:04;5.80;1.00
4324;DHT22;2175;51.018;6.994;2023-03-01T10:34:35;6.20;1.00
4324;DHT22;2175;51.018;6.994;2023-03-01T10:39:34;6.20;99.90
4324;DHT22;2175;51.018;6.994;2023-03-01T10:42:03;6.20;86.30
4324;DHT22;2175;51.018;6.994;2023-03-01T10:45:24;6.20;99.90
4324;DHT22;2175;51.018;6.994;2023-03-01T10:50:44;6.40;1.00
4324;DHT22;2175;51.018;6.994;2023-03-01T10:55:57;6.40;1.00
4324;DHT22;2175;51.018;6.994;2023-03-01T10:58:23;6.20;1.00
4324;DHT22;2175;51.018;6.994;2023-03-01T11:00:58;6.10;1.00
4324;DHT22;2175;51.018;6.994;2023-03-01T11:03:35;6.20;99.90
4324;DHT22;2175;51.018;6.994;2023-03-01T11:08:44;6.60;99.90
4324;DHT22;2175;51.018;6.994;2023-03-01T11:11:31;6.30;1.00
4324;DHT22;2175;51.018;6.994;2023-03-01T11:21:39;6.40;1.00
4324;DHT22;2175;51.018;6.994;2023-03-01T11:24:10;6.40;1.00
4324;DHT22;2175;51.018;6.994;2023-03-01T11:26:51;6.40;1.00
4324;DHT22;2175;51.018;6.994;2023-03-01T11:29:37;6.10;1.00
4324;DHT22;2175;51.018;6.994;2023-03-01T11:32:07;6.10;1.00
4324;DHT22;2175;51.018;6.994;2023-03-01T11:40:26;6.30;1.00
4324;DHT22;2175;51.018;6.994;2023-03-01T11:43:12;6.50;18.20
4324;DHT22;2175;51.018;6.994;2023-03-01T11:54:28;6.70;1.00
4324;DHT22;2175;51.018;6.994;2023-03-01T12:09:01;6.80;1.00
4324;DHT22;2175;51.018;6.994;2023-03-01T12:19:28;6.90;1.00
4324;DHT22;2175;51.018;6.994;2023-03-01T12:30:35;7.40;1.00
4324;DHT22;2175;51.018;6.994;2023-03-01T12:33:29;7.30;1.00
4324;DHT22;2175;51.018;6.994;2023-03-01T12:38:49;7.30;1.00
4324;DHT22;2175;51.018;6.994;2023-03-01T12:44:10;7.30;1.00
4324;DHT22;2175;51.018;6.994;2023-03-01T12:49:17;7.40;1.00
4324;DHT22;2175;51.018;6.994;2023-03-01T12:52:02;7.60;1.00
4324;DHT22;2175;51.018;6.994;2023-03-01T12:54:36;7.60;1.00
4324;DHT22;2175;51.018;6.994;2023-03-01T12:57:14;7.70;1.00
4324;DHT22;2175;51.018;6.994;2023-03-01T13:00:17;7.70;1.00
4324;DHT22;2175;51.018;6.994;2023-03-01T13:03:02;7.80;1.00
4324;DHT22;2175;51.018;6.994;2023-03-01T13:05:56;7.90;1.00
4324;DHT22;2175;51.018;6.994;2023-03-01T13:08:42;7.90;1.00
4324;DHT22;2175;51.018;6.994;2023-03-01T13:11:21;7.80;1.00
4324;DHT22;2175;51.018;6.994;2023-03-01T13:13:48;7.90;1.00
4324;DHT22;2175;51.018;6.994;2023-03-01T13:19:16;8.00;1.00
4324;DHT22;2175;51.018;6.994;2023-03-01T13:21:44;8.10;1.00
4324;DHT22;2175;51.018;6.994;2023-03-01T13:24:43;8.00;1.00
4324;DHT22;2175;51.018;6.994;2023-03-01T13:27:11;8.10;1.00
4324;DHT22;2175;51.018;6.994;2023-03-01T13:29:55;8.00;1.00
4324;DHT22;2175;51.018;6.994;2023-03-01T13:32:32;8.10;1.00
4324;DHT22;2175;51.018;6.994;2023-03-01T13:35:03;8.10;1.00
4324;DHT22;2175;51.018;6.994;2023-03-01T13:37:45;8.20;1.00
4324;DHT22;2175;51.018;6.994;2023-03-01T13:42:49;8.20;1.00
4324;DHT22;2175;51.018;6.994;2023-03-01T13:45:40;8.20;1.00
4324;DHT22;2175;51.018;6.994;2023-03-01T13:48:27;8.30;1.00
4324;DHT22;2175;51.018;6.994;2023-03-01T13:51:09;8.30;1.00
4324;DHT22;2175;51.018;6.994;2023-03-01T13:53:40;8.40;1.00
4324;DHT22;2175;51.018;6.994;2023-03-01T13:56:28;8.40;1.00
4324;DHT22;2175;51.018;6.994;2023-03-01T13:59:06;8.30;1.00
4324;DHT22;2175;51.018;6.994;2023-03-01T14:01:40;8.40;1.00
4324;DHT22;2175;51.018;6.994;2023-03-01T14:04:22;8.40;1.00
4324;DHT22;2175;51.018;6.994;2023-03-01T14:06:50;8.50;1.00
4324;DHT22;2175;51.018;6.994;2023-03-01T14:09:23;8.50;1.00
4324;DHT22;2175;51.018;6.994;2023-03-01T14:17:17;8.50;1.00
4324;DHT22;2175;51.018;6.994;2023-03-01T14:19:47;8.40;1.00
4324;DHT22;2175;51.018;6.994;2023-03-01T14:24:51;8.40;1.00
4324;DHT22;2175;51.018;6.994;2023-03-01T14:27:18;8.50;1.00
4324;DHT22;2175;51.018;6.994;2023-03-01T14:29:54;8.40;1.00
4324;DHT22;2175;51.018;6.994;2023-03-01T14:32:24;8.30;1.00
4324;DHT22;2175;51.018;6.994;2023-03-01T14:34:51;8.30;1.00
4324;DHT22;2175;51.018;6.994;2023-03-01T14:39:46;8.30;1.00
4324;DHT22;2175;51.018;6.994;2023-03-01T14:42:13;8.20;1.00
4324;DHT22;2175;51.018;6.994;2023-03-01T14:44:43;8.20;1.00
4324;DHT22;2175;51.018;6.994;2023-03-01T14:47:14;8.10;1.00
4324;DHT22;2175;51.018;6.994;2023-03-01T14:49:42;8.10;1.00
4324;DHT22;2175;51.018;6.994;2023-03-01T14:52:20;8.20;1.00
4324;DHT22;2175;51.018;6.994;2023-03-01T14:54:50;8.20;1.00
4324;DHT22;2175;51.018;6.994;2023-03-01T14:57:18;8.20;1.00
4324;DHT22;2175;51.018;6.994;2023-03-01T14:59:45;8.00;1.00
4324;DHT22;2175;51.018;6.994;2023-03-01T15:02:16;8.00;1.00
4324;DHT22;2175;51.018;6.994;2023-03-01T15:04:46;7.90;1.00
4324;DHT22;2175;51.018;6.994;2023-03-01T15:07:13;7.90;1.00
4324;DHT22;2175;51.018;6.994;2023-03-01T15:09:40;7.90;1.00
4324;DHT22;2175;51.018;6.994;2023-03-01T15:14:55;7.80;1.00
4324;DHT22;2175;51.018;6.994;2023-03-01T15:17:41;7.80;1.00
4324;DHT22;2175;51.018;6.994;2023-03-01T15:20:18;7.90;1.00
4324;DHT22;2175;51.018;6.994;2023-03-01T15:22:47;7.80;1.00
4324;DHT22;2175;51.018;6.994;2023-03-01T15:25:26;7.70;1.00
4324;DHT22;2175;51.018;6.994;2023-03-01T15:27:54;7.70;1.00
4324;DHT22;2175;51.018;6.994;2023-03-01T15:30:51;7.80;1.00
4324;DHT22;2175;51.018;6.994;2023-03-01T15:33:30;7.80;1.00
4324;DHT22;2175;51.018;6.994;2023-03-01T15:36:02;7.80;1.00
4324;DHT22;2175;51.018;6.994;2023-03-01T15:40:56;7.80;1.00
4324;DHT22;2175;51.018;6.994;2023-03-01T15:43:45;7.80;1.00
4324;DHT22;2175;51.018;6.994;2023-03-01T15:46:44;7.80;1.00
4324;DHT22;2175;51.018;6.994;2023-03-01T15:52:00;7.70;1.00
4324;DHT22;2175;51.018;6.994;2023-03-01T15:54:27;7.70;1.00
4324;DHT22;2175;51.018;6.994;2023-03-01T15:56:53;7.60;1.00
4324;DHT22;2175;51.018;6.994;2023-03-01T15:59:19;7.60;1.00
4324;DHT22;2175;51.018;6.994;2023-03-01T16:01:47;7.60;1.00
4324;DHT22;2175;51.018;6.994;2023-03-01T16:04:16;7.60;1.00
4324;DHT22;2175;51.018;6.994;2023-03-01T16:06:47;7.60;1.00
4324;DHT22;2175;51.018;6.994;2023-03-01T16:09:23;7.50;1.00
4324;DHT22;2175;51.018;6.994;2023-03-01T16:11:49;7.40;1.00
4324;DHT22;2175;51.018;6.994;2023-03-01T16:14:15;7.40;1.00
4324;DHT22;2175;51.018;6.994;2023-03-01T16:16:42;7.40;1.00
4324;DHT22;2175;51.018;6.994;2023-03-01T16:19:07;7.30;1.00
4324;DHT22;2175;51.018;6.994;2023-03-01T16:21:33;7.30;1.00
4324;DHT22;2175;51.018;6.994;2023-03-01T16:23:59;7.30;1.00
4324;DHT22;2175;51.018;6.994;2023-03-01T16:26:24;7.30;1.00
4324;DHT22;2175;51.018;6.994;2023-03-01T16:28:54;7.30;1.00
4324;DHT22;2175;51.018;6.994;2023-03-01T16:31:20;7.20;1.00
4324;DHT22;2175;51.018;6.994;2023-03-01T16:33:46;7.20;1.00
4324;DHT22;2175;51.018;6.994;2023-03-01T16:36:15;7.10;1.00
4324;DHT22;2175;51.018;6.994;2023-03-01T16:38:41;7.10;1.00
4324;DHT22;2175;51.018;6.994;2023-03-01T16:41:13;7.10;1.00
4324;DHT22;2175;51.018;6.994;2023-03-01T16:43:39;6.90;1.00
4324;DHT22;2175;51.018;6.994;2023-03-01T16:46:14;6.90;1.00
4324;DHT22;2175;51.018;6.994;2023-03-01T16:48:41;6.90;1.00
4324;DHT22;2175;51.018;6.994;2023-03-01T16:51:08;6.80;1.00
4324;DHT22;2175;51.018;6.994;2023-03-01T16:53:34;6.80;1.00
4324;DHT22;2175;51.018;6.994;2023-03-01T16:56:05;6.80;1.00
4324;DHT22;2175;51.018;6.994;2023-03-01T16:58:31;6.70;1.00
4324;DHT22;2175;51.018;6.994;2023-03-01T17:01:10;6.70;1.00
4324;DHT22;2175;51.018;6.994;2023-03-01T17:03:39;6.60;1.00
4324;DHT22;2175;51.018;6.994;2023-03-01T17:06:09;6.50;1.00
4324;DHT22;2175;51.018;6.994;2023-03-01T17:08:36;6.50;1.00
4324;DHT22;2175;51.018;6.994;2023-03-01T17:11:11;6.40;22.00
4324;DHT22;2175;51.018;6.994;2023-03-01T17:13:39;6.30;1.00
4324;DHT22;2175;51.018;6.994;2023-03-01T17:16:07;6.30;1.00
4324;DHT22;2175;51.018;6.994;2023-03-01T17:18:33;6.30;1.00
4324;DHT22;2175;51.018;6.994;2023-03-01T17:21:00;6.20;1.00
4324;DHT22;2175;51.018;6.994;2023-03-01T17:23:28;6.20;1.00
4324;DHT22;2175;51.018;6.994;2023-03-01T17:25:54;6.10;1.00
4324;DHT22;2175;51.018;6.994;2023-03-01T17:28:21;6.00;47.80
4324;DHT22;2175;51.018;6.994;2023-03-01T17:30:48;6.00;26.40
4324;DHT22;2175;51.018;6.994;2023-03-01T17:33:17;5.90;92.70
4324;DHT22;2175;51.018;6.994;2023-03-01T17:35:43;5.90;99.90
4324;DHT22;2175;51.018;6.994;2023-03-01T17:38:13;5.80;99.90
4324;DHT22;2175;51.018;6.994;2023-03-01T17:40:40;5.80;99.90
4324;DHT22;2175;51.018;6.994;2023-03-01T17:43:07;5.80;99.90
4324;DHT22;2175;51.018;6.994;2023-03-01T17:45:37;5.70;99.90
4324;DHT22;2175;51.018;6.994;2023-03-01T17:48:05;5.70;99.90
4324;DHT22;2175;51.018;6.994;2023-03-01T17:50:32;5.70;99.90
4324;DHT22;2175;51.018;6.994;2023-03-01T17:52:57;5.60;99.90
4324;DHT22;2175;51.018;6.994;2023-03-01T17:55:24;5.60;99.90
4324;DHT22;2175;51.018;6.994;2023-03-01T17:57:52;5.60;99.90
4324;DHT22;2175;51.018;6.994;2023-03-01T18:00:18;5.50;99.90
4324;DHT22;2175;51.018;6.994;2023-03-01T18:02:45;5.50;99.90
4324;DHT22;2175;51.018;6.994;2023-03-01T18:05:10;5.50;99.90
4324;DHT22;2175;51.018;6.994;2023-03-01T18:07:36;5.50;99.90
4324;DHT22;2175;51.018;6.994;2023-03-01T18:10:03;5.50;99.90
4324;DHT22;2175;51.018;6.994;2023-03-01T18:12:31;5.40;99.90
4324;DHT22;2175;51.018;6.994;2023-03-01T18:14:58;5.40;99.90
4324;DHT22;2175;51.018;6.994;2023-03-01T18:17:25;5.30;99.90
4324;DHT22;2175;51.018;6.994;2023-03-01T18:19:51;5.30;99.90
4324;DHT22;2175;51.018;6.994;2023-03-01T18:22:20;5.30;1.00
4324;DHT22;2175;51.018;6.994;2023-03-01T18:24:45;5.20;1.00
4324;DHT22;2175;51.018;6.994;2023-03-01T18:27:17;5.20;99.90
4324;DHT22;2175;51.018;6.994;2023-03-01T18:29:43;5.20;1.00
4324;DHT22;2175;51.018;6.994;2023-03-01T18:32:09;5.10;1.00
4324;DHT22;2175;51.018;6.994;2023-03-01T18:34:38;5.10;36.70
4324;DHT22;2175;51.018;6.994;2023-03-01T18:37:10;5.00;1.00
4324;DHT22;2175;51.018;6.994;2023-03-01T18:39:36;4.90;1.00
4324;DHT22;2175;51.018;6.994;2023-03-01T18:42:02;4.80;1.00
4324;DHT22;2175;51.018;6.994;2023-03-01T18:44:31;4.80;99.90